createdAt,value
2019-02-21T00:04:03.314Z,17.40
2019-02-21T00:09:07.443Z,18.67
2019-02-21T00:14:11.082Z,16.80
2019-02-21T00:19:14.501Z,16.97
2019-02-21T00:24:17.910Z,17.83
2019-02-21T00:29:21.563Z,15.83
2019-02-21T00:34:25.259Z,16.93
2019-02-21T00:39:28.335Z,14.60
2019-02-21T00:44:31.737Z,18.60
2019-02-21T00:49:35.148Z,17.00
2019-02-21T00:54:38.611Z,16.07
2019-02-21T00:59:42.027Z,17.83
2019-02-21T01:04:45.202Z,16.67
2019-02-21T01:09:48.667Z,18.23
2019-02-21T01:14:51.746Z,19.37
2019-02-21T01:19:55.471Z,19.20
2019-02-21T01:24:59.187Z,19.13
2019-02-21T01:30:02.319Z,16.10
2019-02-21T01:35:06.910Z,17.07
2019-02-21T01:40:10.033Z,17.07
2019-02-21T01:45:13.114Z,19.07
2019-02-21T01:50:16.197Z,19.20
2019-02-21T01:55:20.088Z,19.00
2019-02-21T02:00:23.566Z,16.30
2019-02-21T02:05:27.330Z,16.20
2019-02-21T02:10:31.050Z,17.40
2019-02-21T02:15:34.482Z,16.73
2019-02-21T02:20:38.264Z,19.20
2019-02-21T02:25:41.377Z,18.13
2019-02-21T02:30:44.786Z,19.60
2019-02-21T02:35:48.427Z,18.07
2019-02-21T02:40:51.841Z,18.20
2019-02-21T02:45:55.572Z,16.97
2019-02-21T02:50:58.643Z,18.27
2019-02-21T02:56:02.063Z,18.63
2019-02-21T03:01:05.195Z,18.30
2019-02-21T03:06:08.607Z,17.20
2019-02-21T03:11:11.686Z,18.93
2019-02-21T03:16:15.147Z,17.10
2019-02-21T03:21:18.859Z,15.97
2019-02-21T03:26:22.289Z,15.57
2019-02-21T03:31:25.940Z,16.77
2019-02-21T03:36:29.080Z,15.48
2019-02-21T03:41:32.656Z,18.73
2019-02-21T03:46:36.047Z,14.83
2019-02-21T03:51:39.463Z,15.53
2019-02-21T03:56:43.767Z,19.57
2019-02-21T04:01:47.508Z,17.20
2019-02-21T04:06:51.242Z,16.60
2019-02-21T04:11:54.658Z,15.63
2019-02-21T04:16:57.817Z,18.57
2019-02-21T04:22:00.894Z,15.37
2019-02-21T04:27:04.691Z,17.77
2019-02-21T04:32:16.672Z,16.03
2019-02-21T04:37:13.266Z,16.63
2019-02-21T04:42:17.705Z,17.27
2019-02-21T04:47:21.418Z,18.63
2019-02-21T04:52:24.744Z,17.83
2019-02-21T04:57:28.154Z,16.13
2019-02-21T05:02:31.863Z,18.73
2019-02-21T05:07:35.374Z,17.07
2019-02-21T05:12:38.792Z,19.97
2019-02-21T05:17:42.194Z,18.42
2019-02-21T05:22:45.609Z,17.83
2019-02-21T05:27:50.405Z,18.87
2019-02-21T05:32:58.131Z,20.17
2019-02-21T05:38:09.235Z,20.20
2019-02-21T05:43:17.817Z,18.77
2019-02-21T05:48:25.826Z,17.83
2019-02-21T05:53:36.587Z,20.48
2019-02-21T05:58:53.991Z,20.27
2019-02-21T06:03:59.009Z,22.27
2019-02-21T06:09:03.775Z,20.60
2019-02-21T06:14:14.598Z,20.13
2019-02-21T06:19:19.662Z,19.43
2019-02-21T06:24:30.467Z,20.30
2019-02-21T06:29:35.518Z,19.90
2019-02-21T06:34:38.872Z,22.83
2019-02-21T06:39:42.290Z,18.87
2019-02-21T06:44:45.751Z,23.63
2019-02-21T06:49:49.208Z,21.87
2019-02-21T06:54:52.619Z,23.13
2019-02-21T06:59:56.015Z,21.57
2019-02-21T07:04:59.097Z,22.02
2019-02-21T07:10:02.505Z,18.27
2019-02-21T07:15:08.650Z,20.77
2019-02-21T07:20:12.978Z,20.07
2019-02-21T07:25:17.926Z,18.83
2019-02-21T07:30:23.257Z,18.33
2019-02-21T07:35:26.480Z,18.80
2019-02-21T07:40:29.826Z,21.10
2019-02-21T07:45:36.234Z,22.37
2019-02-21T07:50:38.450Z,19.23
2019-02-21T07:55:41.534Z,32.90
2019-02-21T08:00:44.869Z,20.90
2019-02-21T08:05:48.266Z,19.53
2019-02-21T08:10:51.350Z,19.90
2019-02-21T08:15:54.756Z,20.77
2019-02-21T08:20:58.172Z,19.80
2019-02-21T08:26:01.598Z,21.17
2019-02-21T08:31:04.997Z,28.30
2019-02-21T08:36:08.707Z,19.93
2019-02-21T08:41:14.488Z,21.93
2019-02-21T08:46:18.338Z,21.60
2019-02-21T08:51:21.592Z,20.57
2019-02-21T08:56:25.339Z,21.53
2019-02-21T09:01:28.761Z,23.23
2019-02-21T09:06:32.492Z,22.60
2019-02-21T09:11:35.928Z,20.37
2019-02-21T09:16:39.619Z,20.47
2019-02-21T09:21:42.936Z,21.80
2019-02-21T09:26:46.006Z,23.50
2019-02-21T09:31:49.415Z,23.67
2019-02-21T09:36:52.486Z,19.67
2019-02-21T09:41:57.444Z,26.97
2019-02-21T09:47:00.835Z,20.97
2019-02-21T09:52:04.001Z,20.57
2019-02-21T09:57:13.195Z,19.00
2019-02-21T10:02:12.596Z,19.27
2019-02-21T10:07:15.675Z,22.77
2019-02-21T10:12:19.127Z,21.77
2019-02-21T10:17:22.549Z,22.23
2019-02-21T10:22:26.284Z,18.60
2019-02-21T10:27:29.847Z,22.17
2019-02-21T10:32:33.259Z,22.47
2019-02-21T10:37:36.678Z,20.27
2019-02-21T10:42:40.327Z,23.00
2019-02-21T10:47:43.806Z,20.80
2019-02-21T10:52:47.597Z,24.97
2019-02-21T10:57:50.992Z,20.87
2019-02-21T11:02:54.808Z,21.80
2019-02-21T11:07:58.212Z,22.93
2019-02-21T11:13:01.290Z,23.10
2019-02-21T11:18:04.775Z,27.40
2019-02-21T11:23:08.251Z,29.40
2019-02-21T11:28:11.662Z,28.40
2019-02-21T11:33:14.757Z,27.30
2019-02-21T11:38:18.162Z,25.10
2019-02-21T11:43:21.570Z,30.27
2019-02-21T11:48:25.337Z,23.90
2019-02-21T11:53:28.987Z,26.10
2019-02-21T11:58:32.065Z,27.00
2019-02-21T12:03:35.145Z,23.93
2019-02-21T12:08:38.563Z,26.17
2019-02-21T12:13:42.032Z,25.87
2019-02-21T12:18:45.114Z,24.77
2019-02-21T12:23:48.568Z,25.80
2019-02-21T12:28:52.070Z,28.83
2019-02-21T12:33:55.491Z,24.47
2019-02-21T12:38:58.898Z,26.20
2019-02-21T12:44:02.321Z,23.80
2019-02-21T12:49:05.709Z,25.73
2019-02-21T12:54:09.423Z,26.50
2019-02-21T12:59:12.919Z,26.90
2019-02-21T13:04:16.363Z,25.07
2019-02-21T13:09:19.786Z,24.37
2019-02-21T13:14:23.233Z,22.67
2019-02-21T13:19:26.646Z,25.33
2019-02-21T13:24:30.327Z,21.87
2019-02-21T13:29:34.055Z,23.03
2019-02-21T13:34:37.487Z,25.43
2019-02-21T13:39:40.804Z,20.67
2019-02-21T13:44:44.267Z,26.33
2019-02-21T13:49:47.694Z,21.53
2019-02-21T13:54:51.128Z,20.53
2019-02-21T13:59:54.544Z,22.57
2019-02-21T14:04:58.886Z,21.00
2019-02-21T14:10:02.515Z,23.93
2019-02-21T14:15:21.163Z,25.03
2019-02-21T14:20:24.894Z,26.10
2019-02-21T14:25:29.821Z,25.47
2019-02-21T14:30:32.778Z,28.23
2019-02-21T14:35:36.461Z,28.40
2019-02-21T14:40:39.888Z,32.67
2019-02-21T14:45:43.315Z,28.43
2019-02-21T14:50:46.752Z,28.73
2019-02-21T14:55:50.431Z,33.87
2019-02-21T15:00:53.512Z,31.03
2019-02-21T15:05:56.859Z,31.97
2019-02-21T15:11:01.512Z,33.53
2019-02-21T15:16:05.179Z,33.90
2019-02-21T15:21:08.935Z,32.53
2019-02-21T15:26:12.657Z,30.33
2019-02-21T15:31:16.086Z,30.63
2019-02-21T15:36:19.496Z,28.97
2019-02-21T15:41:23.225Z,29.60
2019-02-21T15:46:26.308Z,29.23
2019-02-21T15:51:29.722Z,31.07
2019-02-21T15:56:32.851Z,32.23
2019-02-21T16:01:46.908Z,28.70
2019-02-21T16:06:51.067Z,31.23
2019-02-21T16:11:46.527Z,28.50
2019-02-21T16:16:49.992Z,29.00
2019-02-21T16:21:53.406Z,32.27
2019-02-21T16:26:56.840Z,28.63
2019-02-21T16:32:01.370Z,31.87
2019-02-21T16:37:04.446Z,30.23
2019-02-21T16:42:07.862Z,30.83
2019-02-21T16:47:11.202Z,27.57
2019-02-21T16:52:14.653Z,32.53
2019-02-21T16:57:18.026Z,29.40
2019-02-21T17:02:21.103Z,33.40
2019-02-21T17:07:24.518Z,36.37
2019-02-21T17:12:30.885Z,37.30
2019-02-21T17:17:32.790Z,32.67
2019-02-21T17:22:36.524Z,31.60
2019-02-21T17:27:39.938Z,35.00
2019-02-21T17:32:43.358Z,34.10
2019-02-21T17:37:46.440Z,34.23
2019-02-21T17:42:50.174Z,34.77
2019-02-21T17:47:54.957Z,36.57
2019-02-21T17:52:58.647Z,38.80
2019-02-21T17:58:01.727Z,36.83
2019-02-21T18:03:05.081Z,38.43
2019-02-21T18:08:08.496Z,32.80
2019-02-21T18:13:11.578Z,37.80
2019-02-21T18:18:15.333Z,35.97
2019-02-21T18:23:18.754Z,40.37
2019-02-21T18:28:22.166Z,34.45
2019-02-21T18:33:25.239Z,33.07
2019-02-21T18:38:28.581Z,35.57
2019-02-21T18:43:31.655Z,40.83
2019-02-21T18:48:34.735Z,37.80
2019-02-21T18:53:37.814Z,39.17
2019-02-21T18:58:40.898Z,38.83
2019-02-21T19:03:44.318Z,36.30
2019-02-21T19:08:47.762Z,38.60
2019-02-21T19:13:51.448Z,35.80
2019-02-21T19:18:54.874Z,31.97
2019-02-21T19:23:58.181Z,32.40
2019-02-21T19:29:01.599Z,29.50
2019-02-21T19:34:05.249Z,28.53
2019-02-21T19:39:08.931Z,28.97
2019-02-21T19:44:12.414Z,31.42
2019-02-21T19:49:16.178Z,26.87
2019-02-21T19:54:20.005Z,26.03
2019-02-21T19:59:23.504Z,27.47
2019-02-21T20:04:26.833Z,25.73
2019-02-21T20:09:30.280Z,25.33
2019-02-21T20:14:33.670Z,27.20
2019-02-21T20:19:37.422Z,30.93
2019-02-21T20:24:40.799Z,31.13
2019-02-21T20:29:43.888Z,29.43
2019-02-21T20:34:47.212Z,28.67
2019-02-21T20:39:50.305Z,27.30
2019-02-21T20:44:53.643Z,25.93
2019-02-21T20:49:57.351Z,25.80
2019-02-21T20:55:00.811Z,28.30
2019-02-21T21:00:06.579Z,28.00
2019-02-21T21:05:09.682Z,28.23
2019-02-21T21:10:16.938Z,29.03
2019-02-21T21:15:20.674Z,31.43
2019-02-21T21:20:25.927Z,29.43
2019-02-21T21:25:31.865Z,31.77
2019-02-21T21:30:35.022Z,34.00
2019-02-21T21:35:38.199Z,35.60
2019-02-21T21:40:41.953Z,34.80
2019-02-21T21:45:45.370Z,36.47
2019-02-21T21:50:49.046Z,35.03
2019-02-21T21:55:52.450Z,40.37
2019-02-21T22:00:56.115Z,37.60
2019-02-21T22:05:59.185Z,37.93
2019-02-21T22:11:02.851Z,36.10
2019-02-21T22:16:05.926Z,41.27
2019-02-21T22:21:09.562Z,39.27
2019-02-21T22:26:12.975Z,39.77
2019-02-21T22:31:16.711Z,42.83
2019-02-21T22:36:20.119Z,44.30
2019-02-21T22:41:23.765Z,48.67
2019-02-21T22:46:26.834Z,56.63
2019-02-21T22:51:29.962Z,51.53
2019-02-21T22:56:33.686Z,49.27
2019-02-21T23:01:36.842Z,52.57
2019-02-21T23:06:41.506Z,52.40
2019-02-21T23:11:44.897Z,53.47
2019-02-21T23:16:48.587Z,52.20
2019-02-21T23:21:51.994Z,55.37
2019-02-21T23:26:55.403Z,50.87
2019-02-21T23:31:59.148Z,53.75
2019-02-21T23:37:02.535Z,53.37
2019-02-21T23:42:05.947Z,49.63
2019-02-21T23:47:09.670Z,53.33
2019-02-21T23:52:13.402Z,54.73
2019-02-21T23:57:16.738Z,56.23
